createdAt,value
2019-05-19T00:00:40.205Z,0.00
2019-05-19T00:01:40.025Z,0.00
2019-05-19T00:02:40.797Z,0.00
2019-05-19T00:03:40.551Z,0.19
2019-05-19T00:04:40.241Z,0.01
2019-05-19T00:05:40.921Z,0.00
2019-05-19T00:06:40.797Z,0.00
2019-05-19T00:07:39.913Z,0.00
2019-05-19T00:08:39.885Z,0.16
2019-05-19T00:09:39.891Z,0.00
2019-05-19T00:10:39.809Z,0.38
2019-05-19T00:11:40.911Z,0.06
2019-05-19T00:12:40.274Z,0.00
2019-05-19T00:13:39.807Z,0.00
2019-05-19T00:14:39.916Z,0.00
2019-05-19T00:15:40.317Z,0.21
2019-05-19T00:16:40.374Z,0.13
2019-05-19T00:17:39.897Z,0.02
2019-05-19T00:18:40.205Z,0.00
2019-05-19T00:19:39.839Z,0.00
2019-05-19T00:20:39.877Z,0.00
2019-05-19T00:21:40.204Z,0.00
2019-05-19T00:22:40.938Z,0.00
2019-05-19T00:23:40.459Z,0.08
2019-05-19T00:24:40.217Z,0.56
2019-05-19T00:25:40.182Z,0.19
2019-05-19T00:26:40.443Z,0.01
2019-05-19T00:27:39.859Z,0.00
2019-05-19T00:28:40.050Z,0.01
2019-05-19T00:29:39.873Z,0.03
2019-05-19T00:30:40.588Z,0.00
2019-05-19T00:31:39.897Z,0.00
2019-05-19T00:32:39.950Z,0.00
2019-05-19T00:33:39.977Z,0.00
2019-05-19T00:34:40.560Z,0.00
2019-05-19T00:35:39.971Z,0.00
2019-05-19T00:36:39.947Z,0.00
2019-05-19T00:37:39.889Z,0.00
2019-05-19T00:38:40.978Z,0.00
2019-05-19T00:39:40.387Z,0.00
2019-05-19T00:40:39.881Z,0.00
2019-05-19T00:41:40.615Z,0.00
2019-05-19T00:42:40.865Z,0.00
2019-05-19T00:43:40.390Z,0.00
2019-05-19T00:44:39.973Z,0.00
2019-05-19T00:45:40.272Z,0.00
2019-05-19T00:46:40.530Z,0.00
2019-05-19T00:47:40.984Z,0.00
2019-05-19T00:48:39.924Z,0.00
2019-05-19T00:49:41.683Z,0.00
2019-05-19T00:50:40.751Z,0.00
2019-05-19T00:51:40.262Z,0.00
2019-05-19T00:52:40.514Z,0.00
2019-05-19T00:53:40.666Z,0.00
2019-05-19T00:54:40.034Z,0.00
2019-05-19T00:55:40.512Z,0.00
2019-05-19T00:56:39.972Z,0.00
2019-05-19T00:57:39.942Z,0.00
2019-05-19T00:58:39.916Z,0.00
2019-05-19T00:59:40.074Z,0.00
2019-05-19T01:00:40.275Z,0.00
2019-05-19T01:01:40.226Z,0.00
2019-05-19T01:02:40.016Z,0.00
2019-05-19T01:03:40.279Z,0.00
2019-05-19T01:04:39.880Z,0.00
2019-05-19T01:05:40.581Z,0.00
2019-05-19T01:06:39.962Z,0.00
2019-05-19T01:07:39.928Z,0.00
2019-05-19T01:08:39.854Z,0.00
2019-05-19T01:09:40.470Z,0.00
2019-05-19T01:10:40.308Z,0.00
2019-05-19T01:11:39.888Z,0.00
2019-05-19T01:12:39.950Z,0.00
2019-05-19T01:13:39.940Z,0.00
2019-05-19T01:14:40.496Z,0.00
2019-05-19T01:15:40.672Z,0.00
2019-05-19T01:16:40.840Z,0.00
2019-05-19T01:17:40.608Z,0.00
2019-05-19T01:18:40.166Z,0.00
2019-05-19T01:19:39.925Z,0.00
2019-05-19T01:20:40.256Z,0.00
2019-05-19T01:21:39.978Z,0.00
2019-05-19T01:22:40.664Z,0.00
2019-05-19T01:23:39.904Z,0.00
2019-05-19T01:24:40.705Z,0.00
2019-05-19T01:25:40.776Z,0.00
2019-05-19T01:26:40.756Z,0.00
2019-05-19T01:27:39.964Z,0.00
2019-05-19T01:28:39.970Z,0.00
2019-05-19T01:29:39.940Z,0.00
2019-05-19T01:30:39.980Z,0.00
2019-05-19T01:31:39.964Z,0.00
2019-05-19T01:32:40.251Z,0.00
2019-05-19T01:33:39.960Z,0.00
2019-05-19T01:34:40.877Z,0.00
2019-05-19T01:35:39.873Z,0.00
2019-05-19T01:36:41.130Z,0.00
2019-05-19T01:37:39.944Z,0.00
2019-05-19T01:38:40.276Z,0.00
2019-05-19T01:39:40.731Z,0.00
2019-05-19T01:40:39.844Z,0.00
2019-05-19T01:41:39.924Z,0.00
2019-05-19T01:42:40.018Z,0.00
2019-05-19T01:43:39.940Z,0.00
2019-05-19T01:44:39.916Z,0.00
2019-05-19T01:45:40.709Z,0.00
2019-05-19T01:46:39.954Z,0.00
2019-05-19T01:47:39.950Z,0.00
2019-05-19T01:48:40.960Z,0.00
2019-05-19T01:49:40.309Z,0.05
2019-05-19T01:50:40.268Z,0.04
2019-05-19T01:51:40.001Z,0.00
2019-05-19T01:52:40.299Z,0.00
2019-05-19T01:53:39.920Z,0.00
2019-05-19T01:54:40.028Z,0.00
2019-05-19T01:55:40.003Z,0.00
2019-05-19T01:56:40.299Z,0.00
2019-05-19T01:57:40.345Z,0.00
2019-05-19T01:58:40.020Z,0.00
2019-05-19T01:59:40.279Z,0.00
2019-05-19T02:00:40.525Z,0.00
2019-05-19T02:01:39.988Z,0.00
2019-05-19T02:02:40.709Z,0.00
2019-05-19T02:03:40.132Z,0.00
2019-05-19T02:04:40.342Z,0.00
2019-05-19T02:05:41.271Z,0.00
2019-05-19T02:06:40.875Z,0.00
2019-05-19T02:07:40.016Z,0.00
2019-05-19T02:08:40.291Z,0.00
2019-05-19T02:09:39.933Z,0.00
2019-05-19T02:10:41.065Z,0.00
2019-05-19T02:11:39.964Z,0.00
2019-05-19T02:12:39.993Z,0.00
2019-05-19T02:13:40.957Z,0.00
2019-05-19T02:14:40.414Z,0.05
2019-05-19T02:15:40.165Z,0.15
2019-05-19T02:16:39.999Z,0.01
2019-05-19T02:17:40.018Z,0.04
2019-05-19T02:18:40.035Z,0.01
2019-05-19T02:19:39.997Z,0.01
2019-05-19T02:20:40.595Z,0.03
2019-05-19T02:21:40.070Z,0.12
2019-05-19T02:22:40.058Z,0.00
2019-05-19T02:23:40.323Z,0.00
2019-05-19T02:24:40.405Z,0.01
2019-05-19T02:25:40.741Z,0.01
2019-05-19T02:26:40.037Z,0.08
2019-05-19T02:27:40.695Z,0.10
2019-05-19T02:28:40.982Z,0.03
2019-05-19T02:29:40.928Z,0.00
2019-05-19T02:30:39.964Z,0.00
2019-05-19T02:31:40.039Z,0.00
2019-05-19T02:32:40.324Z,0.00
2019-05-19T02:33:40.148Z,0.00
2019-05-19T02:34:40.038Z,0.00
2019-05-19T02:35:40.331Z,0.00
2019-05-19T02:36:40.067Z,0.00
2019-05-19T02:37:40.063Z,0.00
2019-05-19T02:38:40.825Z,0.00
2019-05-19T02:39:39.960Z,0.00
2019-05-19T02:40:41.143Z,0.00
2019-05-19T02:41:40.731Z,0.11
2019-05-19T02:42:40.315Z,0.24
2019-05-19T02:43:40.405Z,0.14
2019-05-19T02:44:41.122Z,0.00
2019-05-19T02:45:40.018Z,0.00
2019-05-19T02:46:40.381Z,0.07
2019-05-19T02:47:40.459Z,0.00
2019-05-19T02:48:39.979Z,0.02
2019-05-19T02:49:41.185Z,0.00
2019-05-19T02:50:51.393Z,0.00
2019-05-19T02:51:40.108Z,0.00
2019-05-19T02:52:40.083Z,0.00
2019-05-19T02:53:40.790Z,0.00
2019-05-19T02:54:40.958Z,0.00
2019-05-19T02:55:41.122Z,0.00
2019-05-19T02:56:40.031Z,0.00
2019-05-19T02:57:40.848Z,0.00
2019-05-19T02:58:40.060Z,0.00
2019-05-19T02:59:40.060Z,0.00
2019-05-19T03:00:40.294Z,0.00
2019-05-19T03:01:39.985Z,0.00
2019-05-19T03:02:40.095Z,0.00
2019-05-19T03:03:40.031Z,0.00
2019-05-19T03:04:40.019Z,0.01
2019-05-19T03:05:40.661Z,0.01
2019-05-19T03:06:40.515Z,0.00
2019-05-19T03:07:40.437Z,0.00
2019-05-19T03:08:40.061Z,0.15
2019-05-19T03:09:40.641Z,0.20
2019-05-19T03:10:40.013Z,0.15
2019-05-19T03:11:40.108Z,0.35
2019-05-19T03:12:40.938Z,0.39
2019-05-19T03:13:40.010Z,0.00
2019-05-19T03:14:40.062Z,0.00
2019-05-19T03:15:40.050Z,0.00
2019-05-19T03:16:40.625Z,0.00
2019-05-19T03:17:40.155Z,0.05
2019-05-19T03:18:40.038Z,0.06
2019-05-19T03:19:39.987Z,0.00
2019-05-19T03:20:40.069Z,0.25
2019-05-19T03:21:40.024Z,0.57
2019-05-19T03:22:40.237Z,0.00
2019-05-19T03:23:40.811Z,0.00
2019-05-19T03:24:40.966Z,0.18
2019-05-19T03:25:43.862Z,0.00
2019-05-19T03:26:40.075Z,0.00
2019-05-19T03:27:40.093Z,0.00
2019-05-19T03:28:40.361Z,0.23
2019-05-19T03:29:40.805Z,0.25
2019-05-19T03:30:41.412Z,0.00
2019-05-19T03:31:40.385Z,0.00
2019-05-19T03:32:40.447Z,0.05
2019-05-19T03:33:40.071Z,0.08
2019-05-19T03:34:40.083Z,0.00
2019-05-19T03:35:40.242Z,0.00
2019-05-19T03:36:40.688Z,0.00
2019-05-19T03:37:40.780Z,0.00
2019-05-19T03:38:40.449Z,0.00
2019-05-19T03:39:40.279Z,0.00
2019-05-19T03:40:40.660Z,0.00
2019-05-19T03:41:40.933Z,0.00
2019-05-19T03:42:40.107Z,0.00
2019-05-19T03:43:40.103Z,0.00
2019-05-19T03:44:40.093Z,0.06
2019-05-19T03:45:40.105Z,0.00
2019-05-19T03:46:40.051Z,0.00
2019-05-19T03:47:41.668Z,0.00
2019-05-19T03:48:40.134Z,0.00
2019-05-19T03:49:40.389Z,0.00
2019-05-19T03:50:40.008Z,0.00
2019-05-19T03:51:40.074Z,0.00
2019-05-19T03:52:40.496Z,0.00
2019-05-19T03:53:40.448Z,0.00
2019-05-19T03:54:40.098Z,0.37
2019-05-19T03:55:40.641Z,0.01
2019-05-19T03:56:40.050Z,0.00
2019-05-19T03:57:40.086Z,0.29
2019-05-19T03:58:40.471Z,0.00
2019-05-19T03:59:40.335Z,0.00
2019-05-19T04:00:40.198Z,0.00
2019-05-19T04:01:40.504Z,0.00
2019-05-19T04:02:42.924Z,0.00
2019-05-19T04:03:40.643Z,0.00
2019-05-19T04:04:41.243Z,0.00
2019-05-19T04:05:40.422Z,0.01
2019-05-19T04:06:40.092Z,0.31
2019-05-19T04:07:40.430Z,0.11
2019-05-19T04:08:40.081Z,0.00
2019-05-19T04:09:40.444Z,0.01
2019-05-19T04:10:40.809Z,0.04
2019-05-19T04:11:40.262Z,0.13
2019-05-19T04:12:40.092Z,0.09
2019-05-19T04:13:40.939Z,0.00
2019-05-19T04:14:40.053Z,0.00
2019-05-19T04:15:40.500Z,0.00
2019-05-19T04:16:40.419Z,0.00
2019-05-19T04:17:41.008Z,0.00
2019-05-19T04:18:40.363Z,0.00
2019-05-19T04:19:40.701Z,0.00
2019-05-19T04:20:40.250Z,0.00
2019-05-19T04:21:48.618Z,0.00
2019-05-19T04:22:40.105Z,0.00
2019-05-19T04:23:40.460Z,0.00
2019-05-19T04:24:40.165Z,0.00
2019-05-19T04:25:40.102Z,0.00
2019-05-19T04:26:40.094Z,0.00
2019-05-19T04:27:40.127Z,0.00
2019-05-19T04:28:40.139Z,0.00
2019-05-19T04:29:40.063Z,0.00
2019-05-19T04:30:40.861Z,0.00
2019-05-19T04:31:40.123Z,0.00
2019-05-19T04:32:40.413Z,0.05
2019-05-19T04:33:40.175Z,0.00
2019-05-19T04:34:40.120Z,0.00
2019-05-19T04:35:40.598Z,0.00
2019-05-19T04:36:40.180Z,0.00
2019-05-19T04:37:40.155Z,0.00
2019-05-19T04:38:40.420Z,0.00
2019-05-19T04:39:40.165Z,0.00
2019-05-19T04:40:40.845Z,0.06
2019-05-19T04:41:41.268Z,0.00
2019-05-19T04:42:40.151Z,0.00
2019-05-19T04:43:40.474Z,0.00
2019-05-19T04:44:40.093Z,0.00
2019-05-19T04:45:40.197Z,0.12
2019-05-19T04:46:40.478Z,0.02
2019-05-19T04:47:40.822Z,0.11
2019-05-19T04:48:41.039Z,0.21
2019-05-19T04:49:40.385Z,0.00
2019-05-19T04:50:40.101Z,0.00
2019-05-19T04:51:40.423Z,0.00
2019-05-19T04:52:40.735Z,0.00
2019-05-19T04:53:41.472Z,0.00
2019-05-19T04:54:41.080Z,0.01
2019-05-19T04:55:40.164Z,0.00
2019-05-19T04:56:40.109Z,0.00
2019-05-19T04:57:40.411Z,0.00
2019-05-19T04:58:40.172Z,0.00
2019-05-19T04:59:40.193Z,0.00
2019-05-19T05:00:40.080Z,0.00
2019-05-19T05:01:41.210Z,0.00
2019-05-19T05:02:40.502Z,0.00
2019-05-19T05:03:41.240Z,0.00
2019-05-19T05:04:40.217Z,0.00
2019-05-19T05:05:40.177Z,0.00
2019-05-19T05:06:40.109Z,0.00
2019-05-19T05:07:40.887Z,0.00
2019-05-19T05:08:40.144Z,0.00
2019-05-19T05:09:40.723Z,0.00
2019-05-19T05:10:40.173Z,0.00
2019-05-19T05:11:40.145Z,0.00
2019-05-19T05:12:40.112Z,0.00
2019-05-19T05:13:40.160Z,0.00
2019-05-19T05:14:40.176Z,0.00
2019-05-19T05:15:40.134Z,0.05
2019-05-19T05:16:40.104Z,0.08
2019-05-19T05:17:40.735Z,0.13
2019-05-19T05:18:40.172Z,0.00
2019-05-19T05:19:40.533Z,0.00
2019-05-19T05:20:41.116Z,0.00
2019-05-19T05:21:40.635Z,0.13
2019-05-19T05:22:40.929Z,0.03
2019-05-19T05:23:40.159Z,0.05
2019-05-19T05:24:40.468Z,0.00
2019-05-19T05:25:40.300Z,0.00
2019-05-19T05:26:40.893Z,0.19
2019-05-19T05:27:40.243Z,0.02
2019-05-19T05:28:40.546Z,0.03
2019-05-19T05:29:40.215Z,0.00
2019-05-19T05:30:40.150Z,0.32
2019-05-19T05:31:41.118Z,0.01
2019-05-19T05:32:40.174Z,0.48
2019-05-19T05:33:40.942Z,0.05
2019-05-19T05:34:40.318Z,0.14
2019-05-19T05:35:40.308Z,0.00
2019-05-19T05:36:40.787Z,0.36
2019-05-19T05:37:40.946Z,0.12
2019-05-19T05:38:40.212Z,0.30
2019-05-19T05:39:40.584Z,0.51
2019-05-19T05:40:40.558Z,0.59
2019-05-19T05:41:40.194Z,0.39
2019-05-19T05:42:40.884Z,0.26
2019-05-19T05:43:40.210Z,0.05
2019-05-19T05:44:40.253Z,0.49
2019-05-19T05:45:40.222Z,0.37
2019-05-19T05:46:41.307Z,0.14
2019-05-19T05:47:40.817Z,0.55
2019-05-19T05:48:40.180Z,0.76
2019-05-19T05:49:40.307Z,0.92
2019-05-19T05:50:40.950Z,0.80
2019-05-19T05:51:40.140Z,0.42
2019-05-19T05:52:40.237Z,0.10
2019-05-19T05:53:40.198Z,0.06
2019-05-19T05:54:41.171Z,0.00
2019-05-19T05:55:40.122Z,0.28
2019-05-19T05:56:40.548Z,0.18
2019-05-19T05:57:40.888Z,0.60
2019-05-19T05:58:40.284Z,0.32
2019-05-19T05:59:40.472Z,0.29
2019-05-19T06:00:40.218Z,0.04
2019-05-19T06:01:40.151Z,0.64
2019-05-19T06:02:40.218Z,0.31
2019-05-19T06:03:40.192Z,0.14
2019-05-19T06:04:40.167Z,0.51
2019-05-19T06:05:40.566Z,0.42
2019-05-19T06:06:40.542Z,0.66
2019-05-19T06:07:40.780Z,0.16
2019-05-19T06:08:40.222Z,0.14
2019-05-19T06:09:40.526Z,0.49
2019-05-19T06:10:40.196Z,0.02
2019-05-19T06:11:40.954Z,0.42
2019-05-19T06:12:40.472Z,0.00
2019-05-19T06:13:40.813Z,0.06
2019-05-19T06:14:40.272Z,0.04
2019-05-19T06:15:40.236Z,0.05
2019-05-19T06:16:40.692Z,0.05
2019-05-19T06:17:40.215Z,0.35
2019-05-19T06:18:40.853Z,0.00
2019-05-19T06:19:41.042Z,0.15
2019-05-19T06:20:40.252Z,0.09
2019-05-19T06:21:40.408Z,0.05
2019-05-19T06:22:55.006Z,0.27
2019-05-19T06:23:40.234Z,0.42
2019-05-19T06:24:40.950Z,0.49
2019-05-19T06:25:40.249Z,0.50
2019-05-19T06:26:40.309Z,0.71
2019-05-19T06:27:40.224Z,0.17
2019-05-19T06:28:41.039Z,0.17
2019-05-19T06:29:40.968Z,0.17
2019-05-19T06:30:40.593Z,0.37
2019-05-19T06:31:40.192Z,0.44
2019-05-19T06:32:40.280Z,0.35
2019-05-19T06:33:40.857Z,0.13
2019-05-19T06:34:40.227Z,0.06
2019-05-19T06:35:40.332Z,0.34
2019-05-19T06:36:40.597Z,0.77
2019-05-19T06:37:40.951Z,0.31
2019-05-19T06:38:40.603Z,0.78
2019-05-19T06:39:40.242Z,0.26
2019-05-19T06:40:40.293Z,0.98
2019-05-19T06:41:40.283Z,0.00
2019-05-19T06:42:40.605Z,0.00
2019-05-19T06:43:40.451Z,0.00
2019-05-19T06:44:40.259Z,0.00
2019-05-19T06:45:40.441Z,0.14
2019-05-19T06:46:40.209Z,0.56
2019-05-19T06:47:40.163Z,0.47
2019-05-19T06:48:41.311Z,0.79
2019-05-19T06:49:40.211Z,0.40
2019-05-19T06:50:41.330Z,0.11
2019-05-19T06:51:40.595Z,0.20
2019-05-19T06:52:40.812Z,0.92
2019-05-19T06:53:40.204Z,0.95
2019-05-19T06:54:41.007Z,0.43
2019-05-19T06:55:40.332Z,0.49
2019-05-19T06:56:40.382Z,0.67
2019-05-19T06:57:41.005Z,0.97
2019-05-19T06:58:40.247Z,0.40
2019-05-19T06:59:40.297Z,0.45
2019-05-19T07:00:41.021Z,0.67
2019-05-19T07:01:40.275Z,0.41
2019-05-19T07:02:40.270Z,0.01
2019-05-19T07:03:40.275Z,1.21
2019-05-19T07:04:40.974Z,0.75
2019-05-19T07:05:40.333Z,0.70
2019-05-19T07:06:40.355Z,0.33
2019-05-19T07:07:40.245Z,0.23
2019-05-19T07:08:40.328Z,0.20
2019-05-19T07:09:40.347Z,0.27
2019-05-19T07:10:40.597Z,0.19
2019-05-19T07:11:41.081Z,0.31
2019-05-19T07:12:40.636Z,1.43
2019-05-19T07:13:40.318Z,0.63
2019-05-19T07:14:41.081Z,0.20
2019-05-19T07:15:41.013Z,0.49
2019-05-19T07:16:40.457Z,1.62
2019-05-19T07:17:40.249Z,0.73
2019-05-19T07:18:40.304Z,0.40
2019-05-19T07:19:40.257Z,0.30
2019-05-19T07:20:40.753Z,1.11
2019-05-19T07:21:40.653Z,0.49
2019-05-19T07:22:40.303Z,0.46
2019-05-19T07:23:40.288Z,0.95
2019-05-19T07:24:40.301Z,0.89
2019-05-19T07:25:40.261Z,0.35
2019-05-19T07:26:40.601Z,0.56
2019-05-19T07:27:40.339Z,0.01
2019-05-19T07:28:40.933Z,0.01
2019-05-19T07:29:40.864Z,0.80
2019-05-19T07:30:40.309Z,0.84
2019-05-19T07:31:40.324Z,0.39
2019-05-19T07:32:40.299Z,1.01
2019-05-19T07:33:40.338Z,0.88
2019-05-19T07:34:40.920Z,1.06
2019-05-19T07:35:40.975Z,0.05
2019-05-19T07:36:40.335Z,0.45
2019-05-19T07:37:40.386Z,0.16
2019-05-19T07:38:41.315Z,0.20
2019-05-19T07:39:40.326Z,0.22
2019-05-19T07:40:41.136Z,0.13
2019-05-19T07:41:40.260Z,0.40
2019-05-19T07:42:40.409Z,0.42
2019-05-19T07:43:40.312Z,0.87
2019-05-19T07:44:40.615Z,0.79
2019-05-19T07:45:40.333Z,1.06
2019-05-19T07:46:40.362Z,0.59
2019-05-19T07:47:40.731Z,0.65
2019-05-19T07:48:40.731Z,0.29
2019-05-19T07:49:40.815Z,0.53
2019-05-19T07:50:40.305Z,0.32
2019-05-19T07:51:40.249Z,0.86
2019-05-19T07:52:41.067Z,0.83
2019-05-19T07:53:43.080Z,1.39
2019-05-19T07:54:40.274Z,0.78
2019-05-19T07:55:41.066Z,0.47
2019-05-19T07:56:40.310Z,0.62
2019-05-19T07:57:40.630Z,0.93
2019-05-19T07:58:40.340Z,0.80
2019-05-19T07:59:40.902Z,0.95
2019-05-19T08:00:40.807Z,0.30
2019-05-19T08:01:40.332Z,0.66
2019-05-19T08:02:40.925Z,1.21
2019-05-19T08:03:40.832Z,1.09
2019-05-19T08:04:40.550Z,0.67
2019-05-19T08:05:40.338Z,0.72
2019-05-19T08:06:40.370Z,0.99
2019-05-19T08:07:40.366Z,0.84
2019-05-19T08:08:40.414Z,0.72
2019-05-19T08:09:40.276Z,1.00
2019-05-19T08:10:40.706Z,0.41
2019-05-19T08:11:40.300Z,0.26
2019-05-19T08:12:40.620Z,0.88
2019-05-19T08:13:41.474Z,0.32
2019-05-19T08:14:40.366Z,0.98
2019-05-19T08:15:41.408Z,0.20
2019-05-19T08:16:40.356Z,0.74
2019-05-19T08:17:40.355Z,0.79
2019-05-19T08:18:40.306Z,0.26
2019-05-19T08:19:40.387Z,0.30
2019-05-19T08:20:40.338Z,0.42
2019-05-19T08:21:40.400Z,0.46
2019-05-19T08:22:40.386Z,0.15
2019-05-19T08:23:40.345Z,0.25
2019-05-19T08:24:40.726Z,0.58
2019-05-19T08:25:40.490Z,0.34
2019-05-19T08:26:40.725Z,0.64
2019-05-19T08:27:42.932Z,0.44
2019-05-19T08:28:40.385Z,0.63
2019-05-19T08:29:40.394Z,1.03
2019-05-19T08:30:40.840Z,0.71
2019-05-19T08:31:40.387Z,0.58
2019-05-19T08:32:40.388Z,0.63
2019-05-19T08:33:40.316Z,0.84
2019-05-19T08:34:40.560Z,1.11
2019-05-19T08:35:40.357Z,0.42
2019-05-19T08:36:40.324Z,1.17
2019-05-19T08:37:40.412Z,1.18
2019-05-19T08:38:40.377Z,0.68
2019-05-19T08:39:40.410Z,0.48
2019-05-19T08:40:40.791Z,0.89
2019-05-19T08:41:40.356Z,0.92
2019-05-19T08:42:40.335Z,0.74
2019-05-19T08:43:40.498Z,1.76
2019-05-19T08:44:41.120Z,0.65
2019-05-19T08:45:40.347Z,0.85
2019-05-19T08:46:40.442Z,0.20
2019-05-19T08:47:41.016Z,0.87
2019-05-19T08:48:40.347Z,0.65
2019-05-19T08:49:40.441Z,0.82
2019-05-19T08:50:40.713Z,1.21
2019-05-19T08:51:40.345Z,0.48
2019-05-19T08:52:41.717Z,1.10
2019-05-19T08:53:40.389Z,1.56
2019-05-19T08:54:41.005Z,0.43
2019-05-19T08:55:40.441Z,0.11
2019-05-19T08:56:41.010Z,0.95
2019-05-19T08:57:40.334Z,0.54
2019-05-19T08:58:41.129Z,0.41
2019-05-19T08:59:40.397Z,0.49
2019-05-19T09:00:40.395Z,0.97
2019-05-19T09:01:40.436Z,0.83
2019-05-19T09:02:41.143Z,0.80
2019-05-19T09:03:40.398Z,1.18
2019-05-19T09:04:41.328Z,1.09
2019-05-19T09:05:40.560Z,0.74
2019-05-19T09:06:40.704Z,1.04
2019-05-19T09:07:40.777Z,0.92
2019-05-19T09:08:40.739Z,0.77
2019-05-19T09:09:41.337Z,0.40
2019-05-19T09:10:40.524Z,0.74
2019-05-19T09:11:40.761Z,0.87
2019-05-19T09:12:41.448Z,0.74
2019-05-19T09:13:41.313Z,1.03
2019-05-19T09:14:40.393Z,0.99
2019-05-19T09:15:40.418Z,0.89
2019-05-19T09:16:40.456Z,1.29
2019-05-19T09:17:42.944Z,0.42
2019-05-19T09:18:41.377Z,0.79
2019-05-19T09:19:40.789Z,1.33
2019-05-19T09:20:40.554Z,1.00
2019-05-19T09:21:40.441Z,0.85
2019-05-19T09:22:40.807Z,1.74
2019-05-19T09:23:40.530Z,1.58
2019-05-19T09:24:40.388Z,0.68
2019-05-19T09:25:40.573Z,0.00
2019-05-19T09:26:40.470Z,1.10
2019-05-19T09:27:40.391Z,1.52
2019-05-19T09:28:40.478Z,0.92
2019-05-19T09:29:40.770Z,0.80
2019-05-19T09:30:40.429Z,0.82
2019-05-19T09:31:41.452Z,0.72
2019-05-19T09:32:40.467Z,0.93
2019-05-19T09:33:40.847Z,0.95
2019-05-19T09:34:40.508Z,1.12
2019-05-19T09:35:40.791Z,1.24
2019-05-19T09:36:40.428Z,1.55
2019-05-19T09:37:40.475Z,1.27
2019-05-19T09:38:40.805Z,0.88
2019-05-19T09:39:41.121Z,0.70
2019-05-19T09:40:40.433Z,0.72
2019-05-19T09:41:41.253Z,1.05
2019-05-19T09:42:41.080Z,0.94
2019-05-19T09:43:40.371Z,1.00
2019-05-19T09:44:41.403Z,1.19
2019-05-19T09:45:40.418Z,0.32
2019-05-19T09:46:40.495Z,0.91
2019-05-19T09:47:41.217Z,0.85
2019-05-19T09:48:40.423Z,0.79
2019-05-19T09:49:40.508Z,0.86
2019-05-19T09:50:40.825Z,1.97
2019-05-19T09:51:40.418Z,0.35
2019-05-19T09:52:40.746Z,1.46
2019-05-19T09:53:41.115Z,0.97
2019-05-19T09:54:45.059Z,0.65
2019-05-19T09:55:40.399Z,1.12
2019-05-19T09:56:40.462Z,0.71
2019-05-19T09:57:40.452Z,1.46
2019-05-19T09:58:40.478Z,1.92
2019-05-19T09:59:40.475Z,0.72
2019-05-19T10:00:40.558Z,0.68
2019-05-19T10:01:40.422Z,0.83
2019-05-19T10:02:40.481Z,0.71
2019-05-19T10:03:40.768Z,0.97
2019-05-19T10:04:41.511Z,0.83
2019-05-19T10:05:41.578Z,0.75
2019-05-19T10:06:40.978Z,1.74
2019-05-19T10:07:40.413Z,0.79
2019-05-19T10:08:40.541Z,0.96
2019-05-19T10:09:40.436Z,1.58
2019-05-19T10:10:40.988Z,1.07
2019-05-19T10:11:40.829Z,1.05
2019-05-19T10:12:42.354Z,0.81
2019-05-19T10:13:40.650Z,1.06
2019-05-19T10:14:41.781Z,1.74
2019-05-19T10:15:40.509Z,1.06
2019-05-19T10:16:40.875Z,1.10
2019-05-19T10:17:40.584Z,0.72
2019-05-19T10:18:40.515Z,1.04
2019-05-19T10:19:41.971Z,0.06
2019-05-19T10:20:42.022Z,1.28
2019-05-19T10:21:40.504Z,0.48
2019-05-19T10:28:45.016Z,0.71
2019-05-19T10:29:46.011Z,0.80
2019-05-19T10:30:45.009Z,1.17
2019-05-19T10:31:46.071Z,0.81
2019-05-19T10:32:44.963Z,0.81
2019-05-19T10:33:45.461Z,1.95
2019-05-19T10:34:46.053Z,1.23
2019-05-19T10:35:44.989Z,1.03
2019-05-19T10:36:46.308Z,1.04
2019-05-19T10:37:45.147Z,0.55
2019-05-19T10:38:46.539Z,0.75
2019-05-19T10:39:45.052Z,1.39
2019-05-19T10:40:45.014Z,0.98
2019-05-19T10:41:45.516Z,1.26
2019-05-19T10:42:45.032Z,1.47
2019-05-19T10:43:45.097Z,0.98
2019-05-19T10:44:44.980Z,0.87
2019-05-19T10:45:45.059Z,0.91
2019-05-19T11:02:53.699Z,0.98
2019-05-19T11:03:53.484Z,0.50
2019-05-19T11:04:53.519Z,0.81
2019-05-19T11:05:54.219Z,0.69
2019-05-19T11:06:53.495Z,0.94
2019-05-19T11:07:54.077Z,1.29
2019-05-19T11:08:53.531Z,0.96
2019-05-19T11:09:53.907Z,1.05
2019-05-19T11:10:54.769Z,0.84
2019-05-19T11:11:54.012Z,0.78
2019-05-19T11:12:53.607Z,0.31
2019-05-19T11:13:53.787Z,1.35
2019-05-19T11:14:54.464Z,1.25
2019-05-19T11:15:53.804Z,0.49
2019-05-19T11:16:53.565Z,0.73
2019-05-19T11:17:54.232Z,0.66
2019-05-19T11:18:53.607Z,0.77
2019-05-19T11:19:53.527Z,1.74
2019-05-19T11:20:54.493Z,1.20
2019-05-19T11:21:53.485Z,0.68
2019-05-19T11:22:53.621Z,0.69
2019-05-19T11:23:53.671Z,0.78
2019-05-19T11:24:54.159Z,0.52
2019-05-19T11:25:54.601Z,0.71
2019-05-19T11:26:53.957Z,0.86
2019-05-19T11:27:53.503Z,0.36
2019-05-19T11:28:53.564Z,1.20
2019-05-19T11:29:53.827Z,1.07
2019-05-19T11:30:54.217Z,0.85
2019-05-19T11:31:54.032Z,1.22
2019-05-19T11:32:53.524Z,0.99
2019-05-19T11:33:53.599Z,1.26
2019-05-19T11:34:53.585Z,0.84
2019-05-19T11:35:53.869Z,0.52
2019-05-19T11:36:53.481Z,0.53
2019-05-19T11:37:53.553Z,0.82
2019-05-19T11:38:53.533Z,0.69
2019-05-19T11:39:54.579Z,1.53
2019-05-19T11:40:53.811Z,0.63
2019-05-19T11:41:53.539Z,1.41
2019-05-19T11:42:54.315Z,1.32
2019-05-19T11:43:53.573Z,1.57
2019-05-19T11:44:54.255Z,1.09
2019-05-19T11:45:53.907Z,1.32
2019-05-19T11:46:53.616Z,0.87
2019-05-19T11:47:53.553Z,1.42
2019-05-19T11:48:53.733Z,1.48
2019-05-19T11:49:53.606Z,1.12
2019-05-19T11:50:53.911Z,1.29
2019-05-19T11:51:53.544Z,1.58
2019-05-19T11:52:53.537Z,1.43
2019-05-19T11:53:53.891Z,0.55
2019-05-19T11:54:53.859Z,1.02
2019-05-19T11:56:05.693Z,1.29
2019-05-19T11:56:54.105Z,1.52
2019-05-19T11:57:53.516Z,1.47
2019-05-19T11:58:53.495Z,1.08
2019-05-19T11:59:55.125Z,1.77
2019-05-19T12:00:53.520Z,1.67
2019-05-19T12:01:54.181Z,0.77
2019-05-19T12:02:53.673Z,1.09
2019-05-19T12:03:56.379Z,1.62
2019-05-19T12:04:53.641Z,1.48
2019-05-19T12:05:53.589Z,2.09
2019-05-19T12:06:54.564Z,1.24
2019-05-19T12:07:53.610Z,2.54
2019-05-19T12:08:53.585Z,2.66
2019-05-19T12:09:53.892Z,1.36
2019-05-19T12:10:53.517Z,2.85
2019-05-19T12:11:53.632Z,0.98
2019-05-19T12:12:53.594Z,1.95
2019-05-19T12:13:53.877Z,3.55
2019-05-19T12:14:54.611Z,1.94
2019-05-19T12:15:53.562Z,1.34
2019-05-19T12:16:53.582Z,2.13
2019-05-19T12:17:53.620Z,2.36
2019-05-19T12:18:57.517Z,2.57
2019-05-19T12:19:53.542Z,1.21
2019-05-19T12:20:54.412Z,1.06
2019-05-19T12:21:53.562Z,1.24
2019-05-19T12:22:54.506Z,0.94
2019-05-19T12:23:53.926Z,1.36
2019-05-19T12:24:53.593Z,1.50
2019-05-19T12:25:53.563Z,1.56
2019-05-19T12:26:53.610Z,2.19
2019-05-19T12:27:53.646Z,1.45
2019-05-19T12:28:53.660Z,1.28
2019-05-19T12:29:54.679Z,1.24
2019-05-19T12:30:53.792Z,2.12
2019-05-19T12:31:54.160Z,2.04
2019-05-19T12:32:53.663Z,1.26
2019-05-19T12:33:53.593Z,4.40
2019-05-19T12:34:53.675Z,2.40
2019-05-19T12:35:53.617Z,1.72
2019-05-19T12:36:54.183Z,1.23
2019-05-19T12:37:53.591Z,2.43
2019-05-19T12:38:54.227Z,2.17
2019-05-19T12:39:53.917Z,2.53
2019-05-19T12:40:54.200Z,1.98
2019-05-19T12:41:53.656Z,2.56
2019-05-19T12:42:53.931Z,1.30
2019-05-19T12:43:53.902Z,1.60
2019-05-19T12:44:53.866Z,1.91
2019-05-19T12:45:53.642Z,1.97
2019-05-19T12:46:53.742Z,1.87
2019-05-19T12:47:53.894Z,1.39
2019-05-19T12:48:53.606Z,1.05
2019-05-19T12:49:53.916Z,2.57
2019-05-19T12:50:53.664Z,2.20
2019-05-19T12:51:53.639Z,1.84
2019-05-19T12:52:53.824Z,1.71
2019-05-19T12:53:53.748Z,1.32
2019-05-19T12:54:53.736Z,1.75
2019-05-19T12:55:53.596Z,2.12
2019-05-19T12:56:53.666Z,1.77
2019-05-19T12:57:53.940Z,1.11
2019-05-19T12:58:53.615Z,1.32
2019-05-19T12:59:53.771Z,2.22
2019-05-19T13:00:54.406Z,3.32
2019-05-19T13:01:54.334Z,2.56
2019-05-19T13:02:53.668Z,2.42
2019-05-19T13:03:54.340Z,2.64
2019-05-19T13:05:04.125Z,1.36
2019-05-19T13:05:53.743Z,2.02
2019-05-19T13:06:54.275Z,1.88
2019-05-19T13:07:55.400Z,2.39
2019-05-19T13:08:54.722Z,1.98
2019-05-19T13:09:53.986Z,1.98
2019-05-19T13:10:54.591Z,2.36
2019-05-19T13:11:53.790Z,1.62
2019-05-19T13:12:53.660Z,1.84
2019-05-19T13:13:53.973Z,1.59
2019-05-19T13:14:53.687Z,1.40
2019-05-19T13:15:53.670Z,1.39
2019-05-19T13:16:53.656Z,0.94
2019-05-19T13:17:53.936Z,1.72
2019-05-19T13:18:54.653Z,1.76
2019-05-19T13:19:53.993Z,1.48
2019-05-19T13:20:53.853Z,1.56
2019-05-19T13:21:53.685Z,0.80
2019-05-19T13:22:54.191Z,1.38
2019-05-19T13:23:55.759Z,1.34
2019-05-19T13:24:53.672Z,1.56
2019-05-19T13:25:53.969Z,1.89
2019-05-19T13:26:56.537Z,1.25
2019-05-19T13:27:54.632Z,2.73
2019-05-19T13:28:53.620Z,1.40
2019-05-19T13:29:53.703Z,1.24
2019-05-19T13:30:53.670Z,1.01
2019-05-19T13:31:55.006Z,1.47
2019-05-19T13:32:53.722Z,1.45
2019-05-19T13:33:54.424Z,2.03
2019-05-19T13:34:53.647Z,1.89
2019-05-19T13:35:54.401Z,2.27
2019-05-19T13:36:53.699Z,1.72
2019-05-19T13:37:53.691Z,1.09
2019-05-19T13:38:53.769Z,0.86
2019-05-19T13:39:53.714Z,1.00
2019-05-19T13:40:53.647Z,1.08